sensor_id;sensor_type;location;lat;lon;timestamp;temperature;humidity
6357;DHT22;3211;53.452;-2.264;2023-04-03T00:00:55;7.00;1.00
6357;DHT22;3211;53.452;-2.264;2023-04-03T00:03:23;7.10;1.00
6357;DHT22;3211;53.452;-2.264;2023-04-03T00:05:52;7.00;1.00
6357;DHT22;3211;53.452;-2.264;2023-04-03T00:08:19;6.90;1.00
6357;DHT22;3211;53.452;-2.264;2023-04-03T00:10:46;6.90;1.00
6357;DHT22;3211;53.452;-2.264;2023-04-03T00:13:21;6.80;1.00
6357;DHT22;3211;53.452;-2.264;2023-04-03T00:15:48;6.80;1.00
6357;DHT22;3211;53.452;-2.264;2023-04-03T00:18:15;6.70;1.00
6357;DHT22;3211;53.452;-2.264;2023-04-03T00:20:42;6.70;1.00
6357;DHT22;3211;53.452;-2.264;2023-04-03T00:23:11;6.70;1.00
6357;DHT22;3211;53.452;-2.264;2023-04-03T00:25:38;6.70;1.00
6357;DHT22;3211;53.452;-2.264;2023-04-03T00:28:05;6.60;1.00
6357;DHT22;3211;53.452;-2.264;2023-04-03T00:30:32;6.60;1.00
6357;DHT22;3211;53.452;-2.264;2023-04-03T00:33:00;6.60;1.00
6357;DHT22;3211;53.452;-2.264;2023-04-03T00:35:27;6.60;1.00
6357;DHT22;3211;53.452;-2.264;2023-04-03T00:37:56;6.50;1.00
6357;DHT22;3211;53.452;-2.264;2023-04-03T00:40:26;6.40;1.00
6357;DHT22;3211;53.452;-2.264;2023-04-03T00:42:56;6.40;1.00
6357;DHT22;3211;53.452;-2.264;2023-04-03T00:45:28;6.40;1.00
6357;DHT22;3211;53.452;-2.264;2023-04-03T00:47:56;6.40;1.00
6357;DHT22;3211;53.452;-2.264;2023-04-03T00:50:25;6.30;1.00
6357;DHT22;3211;53.452;-2.264;2023-04-03T00:52:53;6.40;1.10
6357;DHT22;3211;53.452;-2.264;2023-04-03T00:55:21;6.30;6.00
6357;DHT22;3211;53.452;-2.264;2023-04-03T00:57:49;6.30;12.30
6357;DHT22;3211;53.452;-2.264;2023-04-03T01:00:19;6.30;14.90
6357;DHT22;3211;53.452;-2.264;2023-04-03T01:02:48;6.30;15.80
6357;DHT22;3211;53.452;-2.264;2023-04-03T01:05:16;6.20;20.50
6357;DHT22;3211;53.452;-2.264;2023-04-03T01:07:45;6.20;25.50
6357;DHT22;3211;53.452;-2.264;2023-04-03T01:10:14;6.20;14.70
6357;DHT22;3211;53.452;-2.264;2023-04-03T01:12:42;6.20;21.70
6357;DHT22;3211;53.452;-2.264;2023-04-03T01:15:13;6.10;25.90
6357;DHT22;3211;53.452;-2.264;2023-04-03T01:17:44;5.90;32.50
6357;DHT22;3211;53.452;-2.264;2023-04-03T01:20:44;5.90;42.00
6357;DHT22;3211;53.452;-2.264;2023-04-03T01:23:25;5.90;49.40
6357;DHT22;3211;53.452;-2.264;2023-04-03T01:25:56;5.90;48.30
6357;DHT22;3211;53.452;-2.264;2023-04-03T01:28:25;5.90;33.10
6357;DHT22;3211;53.452;-2.264;2023-04-03T01:31:01;6.00;22.00
6357;DHT22;3211;53.452;-2.264;2023-04-03T01:33:30;6.00;21.30
6357;DHT22;3211;53.452;-2.264;2023-04-03T01:35:57;5.90;13.60
6357;DHT22;3211;53.452;-2.264;2023-04-03T01:38:24;6.00;10.00
6357;DHT22;3211;53.452;-2.264;2023-04-03T01:40:51;5.90;3.60
6357;DHT22;3211;53.452;-2.264;2023-04-03T01:43:18;5.90;1.00
6357;DHT22;3211;53.452;-2.264;2023-04-03T01:45:45;5.90;1.00
6357;DHT22;3211;53.452;-2.264;2023-04-03T01:48:12;5.90;1.00
6357;DHT22;3211;53.452;-2.264;2023-04-03T01:50:41;6.00;1.00
6357;DHT22;3211;53.452;-2.264;2023-04-03T01:53:08;6.00;1.00
6357;DHT22;3211;53.452;-2.264;2023-04-03T01:55:35;6.00;1.00
6357;DHT22;3211;53.452;-2.264;2023-04-03T01:58:03;6.00;1.00
6357;DHT22;3211;53.452;-2.264;2023-04-03T02:00:30;6.00;1.00
6357;DHT22;3211;53.452;-2.264;2023-04-03T02:02:57;5.90;1.00
6357;DHT22;3211;53.452;-2.264;2023-04-03T02:05:24;5.90;1.00
6357;DHT22;3211;53.452;-2.264;2023-04-03T02:07:52;5.90;1.00
6357;DHT22;3211;53.452;-2.264;2023-04-03T02:10:19;5.90;1.00
6357;DHT22;3211;53.452;-2.264;2023-04-03T02:12:46;5.90;1.00
6357;DHT22;3211;53.452;-2.264;2023-04-03T02:15:13;5.90;1.00
6357;DHT22;3211;53.452;-2.264;2023-04-03T02:17:40;5.90;1.00
6357;DHT22;3211;53.452;-2.264;2023-04-03T02:20:07;5.80;1.00
6357;DHT22;3211;53.452;-2.264;2023-04-03T02:22:35;5.80;2.10
6357;DHT22;3211;53.452;-2.264;2023-04-03T02:25:04;5.80;4.00
6357;DHT22;3211;53.452;-2.264;2023-04-03T02:27:31;5.80;4.50
6357;DHT22;3211;53.452;-2.264;2023-04-03T02:29:58;5.70;7.70
6357;DHT22;3211;53.452;-2.264;2023-04-03T02:32:25;5.60;7.20
6357;DHT22;3211;53.452;-2.264;2023-04-03T02:34:52;5.60;11.80
6357;DHT22;3211;53.452;-2.264;2023-04-03T02:37:19;5.60;9.70
6357;DHT22;3211;53.452;-2.264;2023-04-03T02:39:46;5.70;12.90
6357;DHT22;3211;53.452;-2.264;2023-04-03T02:42:14;5.50;10.80
6357;DHT22;3211;53.452;-2.264;2023-04-03T02:44:41;5.60;20.20
6357;DHT22;3211;53.452;-2.264;2023-04-03T02:47:08;5.50;22.90
6357;DHT22;3211;53.452;-2.264;2023-04-03T02:49:35;5.50;25.00
6357;DHT22;3211;53.452;-2.264;2023-04-03T02:52:02;5.40;26.00
6357;DHT22;3211;53.452;-2.264;2023-04-03T02:54:29;5.50;30.60
6357;DHT22;3211;53.452;-2.264;2023-04-03T02:56:56;5.40;30.00
6357;DHT22;3211;53.452;-2.264;2023-04-03T02:59:25;5.40;30.20
6357;DHT22;3211;53.452;-2.264;2023-04-03T03:01:52;5.30;31.80
6357;DHT22;3211;53.452;-2.264;2023-04-03T03:04:19;5.30;36.80
6357;DHT22;3211;53.452;-2.264;2023-04-03T03:06:46;5.20;39.10
6357;DHT22;3211;53.452;-2.264;2023-04-03T03:09:13;5.30;45.20
6357;DHT22;3211;53.452;-2.264;2023-04-03T03:11:40;5.20;46.50
6357;DHT22;3211;53.452;-2.264;2023-04-03T03:14:07;5.10;49.10
6357;DHT22;3211;53.452;-2.264;2023-04-03T03:16:35;5.10;53.90
6357;DHT22;3211;53.452;-2.264;2023-04-03T03:19:02;5.10;56.90
6357;DHT22;3211;53.452;-2.264;2023-04-03T03:21:32;5.10;63.70
6357;DHT22;3211;53.452;-2.264;2023-04-03T03:24:01;5.10;69.50
6357;DHT22;3211;53.452;-2.264;2023-04-03T03:26:28;5.00;72.50
6357;DHT22;3211;53.452;-2.264;2023-04-03T03:28:55;4.90;79.00
6357;DHT22;3211;53.452;-2.264;2023-04-03T03:31:22;4.90;82.00
6357;DHT22;3211;53.452;-2.264;2023-04-03T03:33:51;4.80;88.10
6357;DHT22;3211;53.452;-2.264;2023-04-03T03:36:18;4.80;93.00
6357;DHT22;3211;53.452;-2.264;2023-04-03T03:38:45;4.80;98.10
6357;DHT22;3211;53.452;-2.264;2023-04-03T03:41:12;4.70;99.90
6357;DHT22;3211;53.452;-2.264;2023-04-03T03:43:38;4.70;99.90
6357;DHT22;3211;53.452;-2.264;2023-04-03T03:46:05;4.60;99.90
6357;DHT22;3211;53.452;-2.264;2023-04-03T03:48:32;4.60;99.90
6357;DHT22;3211;53.452;-2.264;2023-04-03T03:51:01;4.60;99.90
6357;DHT22;3211;53.452;-2.264;2023-04-03T03:53:28;4.60;99.90
6357;DHT22;3211;53.452;-2.264;2023-04-03T03:55:54;4.50;99.90
6357;DHT22;3211;53.452;-2.264;2023-04-03T03:58:21;4.50;99.90
6357;DHT22;3211;53.452;-2.264;2023-04-03T04:00:48;4.50;99.90
6357;DHT22;3211;53.452;-2.264;2023-04-03T04:03:15;4.40;99.90
6357;DHT22;3211;53.452;-2.264;2023-04-03T04:05:43;4.40;99.90
6357;DHT22;3211;53.452;-2.264;2023-04-03T04:08:11;4.40;99.90
6357;DHT22;3211;53.452;-2.264;2023-04-03T04:10:38;4.40;99.90
6357;DHT22;3211;53.452;-2.264;2023-04-03T04:13:05;4.30;99.90
6357;DHT22;3211;53.452;-2.264;2023-04-03T04:15:32;4.30;99.90
6357;DHT22;3211;53.452;-2.264;2023-04-03T04:17:59;4.30;99.90
6357;DHT22;3211;53.452;-2.264;2023-04-03T04:20:26;4.20;99.90
6357;DHT22;3211;53.452;-2.264;2023-04-03T04:22:54;4.20;99.90
6357;DHT22;3211;53.452;-2.264;2023-04-03T04:25:22;4.20;99.90
6357;DHT22;3211;53.452;-2.264;2023-04-03T04:27:49;4.20;99.90
6357;DHT22;3211;53.452;-2.264;2023-04-03T04:30:16;4.20;99.90
6357;DHT22;3211;53.452;-2.264;2023-04-03T04:32:43;4.30;99.90
6357;DHT22;3211;53.452;-2.264;2023-04-03T04:35:10;4.30;99.90
6357;DHT22;3211;53.452;-2.264;2023-04-03T04:37:37;4.30;99.90
6357;DHT22;3211;53.452;-2.264;2023-04-03T04:40:06;4.30;99.90
6357;DHT22;3211;53.452;-2.264;2023-04-03T04:42:34;4.30;99.90
6357;DHT22;3211;53.452;-2.264;2023-04-03T04:45:01;4.20;99.90
6357;DHT22;3211;53.452;-2.264;2023-04-03T04:47:28;4.10;99.90
6357;DHT22;3211;53.452;-2.264;2023-04-03T04:49:55;4.10;99.90
6357;DHT22;3211;53.452;-2.264;2023-04-03T04:52:22;4.10;99.90
6357;DHT22;3211;53.452;-2.264;2023-04-03T04:54:49;4.10;99.90
6357;DHT22;3211;53.452;-2.264;2023-04-03T04:57:16;4.10;99.90
6357;DHT22;3211;53.452;-2.264;2023-04-03T04:59:44;4.10;99.90
6357;DHT22;3211;53.452;-2.264;2023-04-03T05:02:11;4.00;99.90
6357;DHT22;3211;53.452;-2.264;2023-04-03T05:04:38;4.00;99.90
6357;DHT22;3211;53.452;-2.264;2023-04-03T05:07:06;4.00;99.90
6357;DHT22;3211;53.452;-2.264;2023-04-03T05:09:36;4.00;99.90
6357;DHT22;3211;53.452;-2.264;2023-04-03T05:12:03;3.90;99.90
6357;DHT22;3211;53.452;-2.264;2023-04-03T05:14:30;3.90;99.90
6357;DHT22;3211;53.452;-2.264;2023-04-03T05:16:58;3.80;99.90
6357;DHT22;3211;53.452;-2.264;2023-04-03T05:19:25;3.80;99.90
6357;DHT22;3211;53.452;-2.264;2023-04-03T05:21:52;3.80;99.90
6357;DHT22;3211;53.452;-2.264;2023-04-03T05:24:19;3.80;99.90
6357;DHT22;3211;53.452;-2.264;2023-04-03T05:26:46;3.70;99.90
6357;DHT22;3211;53.452;-2.264;2023-04-03T05:29:13;3.70;99.90
6357;DHT22;3211;53.452;-2.264;2023-04-03T05:31:40;3.70;99.90
6357;DHT22;3211;53.452;-2.264;2023-04-03T05:34:08;3.70;99.90
6357;DHT22;3211;53.452;-2.264;2023-04-03T05:36:35;3.70;99.90
6357;DHT22;3211;53.452;-2.264;2023-04-03T05:39:02;3.70;99.90
6357;DHT22;3211;53.452;-2.264;2023-04-03T05:41:29;3.70;99.90
6357;DHT22;3211;53.452;-2.264;2023-04-03T05:43:56;3.70;99.90
6357;DHT22;3211;53.452;-2.264;2023-04-03T05:46:24;3.70;99.90
6357;DHT22;3211;53.452;-2.264;2023-04-03T05:48:52;3.70;99.90
6357;DHT22;3211;53.452;-2.264;2023-04-03T05:51:24;3.60;99.90
6357;DHT22;3211;53.452;-2.264;2023-04-03T05:53:56;3.60;99.90
6357;DHT22;3211;53.452;-2.264;2023-04-03T05:56:26;3.50;99.90
6357;DHT22;3211;53.452;-2.264;2023-04-03T05:58:53;3.60;99.90
6357;DHT22;3211;53.452;-2.264;2023-04-03T06:01:20;3.60;99.90
6357;DHT22;3211;53.452;-2.264;2023-04-03T06:03:47;3.60;99.90
6357;DHT22;3211;53.452;-2.264;2023-04-03T06:06:17;3.60;99.90
6357;DHT22;3211;53.452;-2.264;2023-04-03T06:08:45;3.60;99.90
6357;DHT22;3211;53.452;-2.264;2023-04-03T06:11:12;3.60;99.90
6357;DHT22;3211;53.452;-2.264;2023-04-03T06:13:39;3.50;99.90
6357;DHT22;3211;53.452;-2.264;2023-04-03T06:16:06;3.60;99.90
6357;DHT22;3211;53.452;-2.264;2023-04-03T06:18:34;3.60;99.90
6357;DHT22;3211;53.452;-2.264;2023-04-03T06:21:01;3.70;99.90
6357;DHT22;3211;53.452;-2.264;2023-04-03T06:23:28;3.70;99.90
6357;DHT22;3211;53.452;-2.264;2023-04-03T06:25:56;3.80;99.90
6357;DHT22;3211;53.452;-2.264;2023-04-03T06:28:23;3.90;99.90
6357;DHT22;3211;53.452;-2.264;2023-04-03T06:30:50;4.00;99.90
6357;DHT22;3211;53.452;-2.264;2023-04-03T06:33:17;4.00;99.90
6357;DHT22;3211;53.452;-2.264;2023-04-03T06:35:45;4.00;99.90
6357;DHT22;3211;53.452;-2.264;2023-04-03T06:38:12;4.00;99.90
6357;DHT22;3211;53.452;-2.264;2023-04-03T06:40:39;4.10;99.90
6357;DHT22;3211;53.452;-2.264;2023-04-03T06:43:07;4.20;99.90
6357;DHT22;3211;53.452;-2.264;2023-04-03T06:45:34;4.20;99.90
6357;DHT22;3211;53.452;-2.264;2023-04-03T06:48:01;4.30;99.90
6357;DHT22;3211;53.452;-2.264;2023-04-03T06:50:28;4.40;99.90
6357;DHT22;3211;53.452;-2.264;2023-04-03T06:52:55;4.50;99.90
6357;DHT22;3211;53.452;-2.264;2023-04-03T06:55:22;4.60;99.90
6357;DHT22;3211;53.452;-2.264;2023-04-03T06:57:49;4.70;99.90
6357;DHT22;3211;53.452;-2.264;2023-04-03T07:00:18;4.70;99.90
6357;DHT22;3211;53.452;-2.264;2023-04-03T07:02:45;4.80;99.90
6357;DHT22;3211;53.452;-2.264;2023-04-03T07:05:12;4.80;99.90
6357;DHT22;3211;53.452;-2.264;2023-04-03T07:07:39;4.90;99.90
6357;DHT22;3211;53.452;-2.264;2023-04-03T07:10:07;4.90;99.90
6357;DHT22;3211;53.452;-2.264;2023-04-03T07:12:35;5.00;99.90
6357;DHT22;3211;53.452;-2.264;2023-04-03T07:15:02;5.10;99.90
6357;DHT22;3211;53.452;-2.264;2023-04-03T07:17:30;5.10;99.90
6357;DHT22;3211;53.452;-2.264;2023-04-03T07:19:57;5.20;99.90
6357;DHT22;3211;53.452;-2.264;2023-04-03T07:22:25;5.30;99.90
6357;DHT22;3211;53.452;-2.264;2023-04-03T07:24:52;5.30;99.90
6357;DHT22;3211;53.452;-2.264;2023-04-03T07:27:19;5.30;99.90
6357;DHT22;3211;53.452;-2.264;2023-04-03T07:29:46;5.40;99.90
6357;DHT22;3211;53.452;-2.264;2023-04-03T07:32:14;5.50;99.90
6357;DHT22;3211;53.452;-2.264;2023-04-03T07:34:43;5.50;99.90
6357;DHT22;3211;53.452;-2.264;2023-04-03T07:37:10;5.60;99.90
6357;DHT22;3211;53.452;-2.264;2023-04-03T07:39:37;5.60;99.90
6357;DHT22;3211;53.452;-2.264;2023-04-03T07:42:04;5.70;99.90
6357;DHT22;3211;53.452;-2.264;2023-04-03T07:44:31;5.60;99.90
6357;DHT22;3211;53.452;-2.264;2023-04-03T07:46:58;5.60;99.90
6357;DHT22;3211;53.452;-2.264;2023-04-03T07:49:25;5.70;99.90
6357;DHT22;3211;53.452;-2.264;2023-04-03T07:51:54;5.80;99.90
6357;DHT22;3211;53.452;-2.264;2023-04-03T07:54:21;5.80;99.90
6357;DHT22;3211;53.452;-2.264;2023-04-03T07:56:48;6.00;99.90
6357;DHT22;3211;53.452;-2.264;2023-04-03T07:59:14;5.90;95.90
6357;DHT22;3211;53.452;-2.264;2023-04-03T08:01:41;5.80;97.80
6357;DHT22;3211;53.452;-2.264;2023-04-03T08:04:09;5.90;99.80
6357;DHT22;3211;53.452;-2.264;2023-04-03T08:06:36;5.90;98.90
6357;DHT22;3211;53.452;-2.264;2023-04-03T08:09:04;6.00;97.80
6357;DHT22;3211;53.452;-2.264;2023-04-03T08:11:31;5.90;95.60
6357;DHT22;3211;53.452;-2.264;2023-04-03T08:13:58;6.00;93.50
6357;DHT22;3211;53.452;-2.264;2023-04-03T08:16:25;6.00;92.00
6357;DHT22;3211;53.452;-2.264;2023-04-03T08:18:53;6.00;87.00
6357;DHT22;3211;53.452;-2.264;2023-04-03T08:21:21;6.10;84.30
6357;DHT22;3211;53.452;-2.264;2023-04-03T08:23:49;6.30;86.60
6357;DHT22;3211;53.452;-2.264;2023-04-03T08:26:20;6.10;73.10
6357;DHT22;3211;53.452;-2.264;2023-04-03T08:28:47;6.10;70.90
6357;DHT22;3211;53.452;-2.264;2023-04-03T08:31:16;6.30;77.90
6357;DHT22;3211;53.452;-2.264;2023-04-03T08:33:44;6.40;73.80
6357;DHT22;3211;53.452;-2.264;2023-04-03T08:36:18;6.40;65.30
6357;DHT22;3211;53.452;-2.264;2023-04-03T08:38:46;6.60;64.40
6357;DHT22;3211;53.452;-2.264;2023-04-03T08:41:16;6.40;63.40
6357;DHT22;3211;53.452;-2.264;2023-04-03T08:43:56;6.40;57.50
6357;DHT22;3211;53.452;-2.264;2023-04-03T08:46:33;6.60;60.30
6357;DHT22;3211;53.452;-2.264;2023-04-03T08:49:02;6.60;61.10
6357;DHT22;3211;53.452;-2.264;2023-04-03T08:51:31;6.60;63.70
6357;DHT22;3211;53.452;-2.264;2023-04-03T08:54:02;6.80;69.50
6357;DHT22;3211;53.452;-2.264;2023-04-03T08:56:30;6.80;56.50
6357;DHT22;3211;53.452;-2.264;2023-04-03T08:59:00;6.80;60.00
6357;DHT22;3211;53.452;-2.264;2023-04-03T09:01:35;7.10;62.10
6357;DHT22;3211;53.452;-2.264;2023-04-03T09:04:02;7.30;49.00
6357;DHT22;3211;53.452;-2.264;2023-04-03T09:06:32;7.30;35.20
6357;DHT22;3211;53.452;-2.264;2023-04-03T09:09:11;7.40;26.50
6357;DHT22;3211;53.452;-2.264;2023-04-03T09:11:47;7.40;7.30
6357;DHT22;3211;53.452;-2.264;2023-04-03T09:14:22;7.70;2.40
6357;DHT22;3211;53.452;-2.264;2023-04-03T09:16:54;7.70;1.00
6357;DHT22;3211;53.452;-2.264;2023-04-03T09:19:30;7.60;1.00
6357;DHT22;3211;53.452;-2.264;2023-04-03T09:22:02;7.60;1.00
6357;DHT22;3211;53.452;-2.264;2023-04-03T09:24:33;7.60;1.00
6357;DHT22;3211;53.452;-2.264;2023-04-03T09:27:03;7.70;1.00
6357;DHT22;3211;53.452;-2.264;2023-04-03T09:29:36;7.70;1.00
6357;DHT22;3211;53.452;-2.264;2023-04-03T09:32:18;7.80;1.00
6357;DHT22;3211;53.452;-2.264;2023-04-03T09:34:45;7.90;1.00
6357;DHT22;3211;53.452;-2.264;2023-04-03T09:37:33;8.10;1.00
6357;DHT22;3211;53.452;-2.264;2023-04-03T09:40:02;8.00;1.00
6357;DHT22;3211;53.452;-2.264;2023-04-03T09:42:30;8.30;1.00
6357;DHT22;3211;53.452;-2.264;2023-04-03T09:45:03;8.30;1.00
6357;DHT22;3211;53.452;-2.264;2023-04-03T09:47:32;8.20;1.00
6357;DHT22;3211;53.452;-2.264;2023-04-03T09:50:19;8.00;1.00
6357;DHT22;3211;53.452;-2.264;2023-04-03T09:52:47;8.20;1.00
6357;DHT22;3211;53.452;-2.264;2023-04-03T09:55:16;8.20;1.00
6357;DHT22;3211;53.452;-2.264;2023-04-03T09:57:43;8.50;1.00
6357;DHT22;3211;53.452;-2.264;2023-04-03T10:00:22;8.60;1.00
6357;DHT22;3211;53.452;-2.264;2023-04-03T10:02:51;8.90;1.00
6357;DHT22;3211;53.452;-2.264;2023-04-03T10:05:31;9.10;1.00
6357;DHT22;3211;53.452;-2.264;2023-04-03T10:08:10;9.20;1.00
6357;DHT22;3211;53.452;-2.264;2023-04-03T10:10:43;9.50;1.00
6357;DHT22;3211;53.452;-2.264;2023-04-03T10:13:13;9.30;1.00
6357;DHT22;3211;53.452;-2.264;2023-04-03T10:15:50;9.60;1.00
6357;DHT22;3211;53.452;-2.264;2023-04-03T10:18:29;9.80;1.00
6357;DHT22;3211;53.452;-2.264;2023-04-03T10:21:02;9.80;1.00
6357;DHT22;3211;53.452;-2.264;2023-04-03T10:23:36;9.80;1.00
6357;DHT22;3211;53.452;-2.264;2023-04-03T10:26:12;9.70;1.00
6357;DHT22;3211;53.452;-2.264;2023-04-03T10:28:48;9.90;1.00
6357;DHT22;3211;53.452;-2.264;2023-04-03T10:31:23;10.20;1.00
6357;DHT22;3211;53.452;-2.264;2023-04-03T10:33:58;10.30;1.00
6357;DHT22;3211;53.452;-2.264;2023-04-03T10:36:34;10.30;1.00
6357;DHT22;3211;53.452;-2.264;2023-04-03T10:39:12;10.50;1.00
6357;DHT22;3211;53.452;-2.264;2023-04-03T10:41:50;10.50;1.00
6357;DHT22;3211;53.452;-2.264;2023-04-03T10:44:29;10.30;1.00
6357;DHT22;3211;53.452;-2.264;2023-04-03T10:47:03;10.40;1.00
6357;DHT22;3211;53.452;-2.264;2023-04-03T10:49:39;10.40;1.00
6357;DHT22;3211;53.452;-2.264;2023-04-03T10:52:16;10.70;1.00
6357;DHT22;3211;53.452;-2.264;2023-04-03T10:54:49;10.70;1.00
6357;DHT22;3211;53.452;-2.264;2023-04-03T10:57:19;11.00;1.00
6357;DHT22;3211;53.452;-2.264;2023-04-03T10:59:51;11.00;1.00
6357;DHT22;3211;53.452;-2.264;2023-04-03T11:02:23;11.30;1.00
6357;DHT22;3211;53.452;-2.264;2023-04-03T11:04:55;11.40;1.00
6357;DHT22;3211;53.452;-2.264;2023-04-03T11:07:26;11.40;1.00
6357;DHT22;3211;53.452;-2.264;2023-04-03T11:09:58;11.30;1.00
6357;DHT22;3211;53.452;-2.264;2023-04-03T11:12:31;11.40;1.00
6357;DHT22;3211;53.452;-2.264;2023-04-03T11:15:02;11.30;1.00
6357;DHT22;3211;53.452;-2.264;2023-04-03T11:17:35;11.60;1.00
6357;DHT22;3211;53.452;-2.264;2023-04-03T11:20:13;11.70;1.00
6357;DHT22;3211;53.452;-2.264;2023-04-03T11:22:43;11.60;1.00
6357;DHT22;3211;53.452;-2.264;2023-04-03T11:25:18;11.10;1.00
6357;DHT22;3211;53.452;-2.264;2023-04-03T11:27:49;11.20;1.00
6357;DHT22;3211;53.452;-2.264;2023-04-03T11:30:19;11.70;1.00
6357;DHT22;3211;53.452;-2.264;2023-04-03T11:33:08;12.10;1.00
6357;DHT22;3211;53.452;-2.264;2023-04-03T11:35:43;12.20;1.00
6357;DHT22;3211;53.452;-2.264;2023-04-03T11:38:17;12.10;1.00
6357;DHT22;3211;53.452;-2.264;2023-04-03T11:40:47;12.00;1.00
6357;DHT22;3211;53.452;-2.264;2023-04-03T11:43:25;12.20;1.00
6357;DHT22;3211;53.452;-2.264;2023-04-03T11:45:57;12.20;1.00
6357;DHT22;3211;53.452;-2.264;2023-04-03T11:48:49;12.00;1.00
6357;DHT22;3211;53.452;-2.264;2023-04-03T11:51:42;12.50;1.00
6357;DHT22;3211;53.452;-2.264;2023-04-03T11:54:43;12.70;1.00
6357;DHT22;3211;53.452;-2.264;2023-04-03T11:57:45;12.90;1.00
6357;DHT22;3211;53.452;-2.264;2023-04-03T12:00:47;12.90;1.00
6357;DHT22;3211;53.452;-2.264;2023-04-03T12:12:36;13.10;1.00
6357;DHT22;3211;53.452;-2.264;2023-04-03T12:15:41;13.40;1.00
6357;DHT22;3211;53.452;-2.264;2023-04-03T12:21:18;13.90;1.00
6357;DHT22;3211;53.452;-2.264;2023-04-03T12:24:04;13.50;1.00
6357;DHT22;3211;53.452;-2.264;2023-04-03T12:26:43;13.60;1.00
6357;DHT22;3211;53.452;-2.264;2023-04-03T12:29:18;13.00;99.90
6357;DHT22;3211;53.452;-2.264;2023-04-03T12:31:55;13.80;1.00
6357;DHT22;3211;53.452;-2.264;2023-04-03T12:34:39;14.40;1.00
6357;DHT22;3211;53.452;-2.264;2023-04-03T12:37:20;14.70;99.90
6357;DHT22;3211;53.452;-2.264;2023-04-03T12:40:03;14.60;99.90
6357;DHT22;3211;53.452;-2.264;2023-04-03T12:42:51;14.30;99.90
6357;DHT22;3211;53.452;-2.264;2023-04-03T12:45:25;13.70;99.90
6357;DHT22;3211;53.452;-2.264;2023-04-03T12:47:53;13.70;1.00
6357;DHT22;3211;53.452;-2.264;2023-04-03T12:50:23;14.00;1.00
6357;DHT22;3211;53.452;-2.264;2023-04-03T12:53:00;14.60;99.90
6357;DHT22;3211;53.452;-2.264;2023-04-03T12:55:28;14.60;99.90
6357;DHT22;3211;53.452;-2.264;2023-04-03T12:57:55;14.80;99.90
6357;DHT22;3211;53.452;-2.264;2023-04-03T13:00:29;14.90;99.90
6357;DHT22;3211;53.452;-2.264;2023-04-03T13:02:58;14.70;99.90
6357;DHT22;3211;53.452;-2.264;2023-04-03T13:05:26;14.60;99.90
6357;DHT22;3211;53.452;-2.264;2023-04-03T13:07:58;14.60;99.90
6357;DHT22;3211;53.452;-2.264;2023-04-03T14:04:50;16.10;99.90
6357;DHT22;3211;53.452;-2.264;2023-04-03T14:07:23;16.60;99.90
6357;DHT22;3211;53.452;-2.264;2023-04-03T14:09:50;16.50;99.90
6357;DHT22;3211;53.452;-2.264;2023-04-03T14:12:20;15.90;99.90
6357;DHT22;3211;53.452;-2.264;2023-04-03T14:14:48;15.70;99.90
6357;DHT22;3211;53.452;-2.264;2023-04-03T14:17:17;16.50;99.90
6357;DHT22;3211;53.452;-2.264;2023-04-03T14:19:48;16.70;99.90
6357;DHT22;3211;53.452;-2.264;2023-04-03T14:22:18;16.50;99.90
6357;DHT22;3211;53.452;-2.264;2023-04-03T14:24:47;16.80;99.90
6357;DHT22;3211;53.452;-2.264;2023-04-03T14:27:18;16.90;99.90
6357;DHT22;3211;53.452;-2.264;2023-04-03T14:29:45;16.60;99.90
6357;DHT22;3211;53.452;-2.264;2023-04-03T14:32:14;16.70;99.90
6357;DHT22;3211;53.452;-2.264;2023-04-03T14:34:42;16.70;99.90
6357;DHT22;3211;53.452;-2.264;2023-04-03T14:37:13;17.30;99.90
6357;DHT22;3211;53.452;-2.264;2023-04-03T14:39:41;17.20;99.90
6357;DHT22;3211;53.452;-2.264;2023-04-03T14:42:12;17.90;99.90
6357;DHT22;3211;53.452;-2.264;2023-04-03T14:44:40;17.90;99.90
6357;DHT22;3211;53.452;-2.264;2023-04-03T14:47:11;17.90;99.90
6357;DHT22;3211;53.452;-2.264;2023-04-03T14:49:40;17.80;99.90
6357;DHT22;3211;53.452;-2.264;2023-04-03T14:52:17;17.50;99.90
6357;DHT22;3211;53.452;-2.264;2023-04-03T14:54:44;17.80;99.90
6357;DHT22;3211;53.452;-2.264;2023-04-03T14:57:14;18.60;99.90
6357;DHT22;3211;53.452;-2.264;2023-04-03T14:59:42;19.20;99.90
6357;DHT22;3211;53.452;-2.264;2023-04-03T15:02:25;19.50;99.90
6357;DHT22;3211;53.452;-2.264;2023-04-03T15:04:53;19.90;99.90
6357;DHT22;3211;53.452;-2.264;2023-04-03T15:07:22;20.30;99.90
6357;DHT22;3211;53.452;-2.264;2023-04-03T15:09:51;21.60;99.90
6357;DHT22;3211;53.452;-2.264;2023-04-03T15:12:18;22.80;99.90
6357;DHT22;3211;53.452;-2.264;2023-04-03T15:14:46;23.60;99.90
6357;DHT22;3211;53.452;-2.264;2023-04-03T15:17:17;25.30;99.90
6357;DHT22;3211;53.452;-2.264;2023-04-03T15:19:44;26.00;99.90
6357;DHT22;3211;53.452;-2.264;2023-04-03T15:22:14;25.70;99.90
6357;DHT22;3211;53.452;-2.264;2023-04-03T15:24:43;23.60;99.90
6357;DHT22;3211;53.452;-2.264;2023-04-03T15:27:13;23.60;99.90
6357;DHT22;3211;53.452;-2.264;2023-04-03T15:29:42;24.70;99.90
6357;DHT22;3211;53.452;-2.264;2023-04-03T15:32:10;26.30;99.90
6357;DHT22;3211;53.452;-2.264;2023-04-03T15:34:38;25.50;99.90
6357;DHT22;3211;53.452;-2.264;2023-04-03T15:37:05;25.50;99.90
6357;DHT22;3211;53.452;-2.264;2023-04-03T15:39:32;25.40;99.90
6357;DHT22;3211;53.452;-2.264;2023-04-03T15:42:01;24.10;99.90
6357;DHT22;3211;53.452;-2.264;2023-04-03T15:44:32;24.50;99.90
6357;DHT22;3211;53.452;-2.264;2023-04-03T15:47:00;23.20;99.90
6357;DHT22;3211;53.452;-2.264;2023-04-03T15:49:27;22.80;99.90
6357;DHT22;3211;53.452;-2.264;2023-04-03T15:51:54;23.30;99.90
6357;DHT22;3211;53.452;-2.264;2023-04-03T15:54:21;26.10;99.90
6357;DHT22;3211;53.452;-2.264;2023-04-03T15:56:49;27.20;99.90
6357;DHT22;3211;53.452;-2.264;2023-04-03T15:59:18;25.20;99.90
6357;DHT22;3211;53.452;-2.264;2023-04-03T16:01:45;23.30;99.90
6357;DHT22;3211;53.452;-2.264;2023-04-03T16:04:12;24.20;99.90
6357;DHT22;3211;53.452;-2.264;2023-04-03T16:06:40;23.60;99.90
6357;DHT22;3211;53.452;-2.264;2023-04-03T16:09:07;25.00;99.90
6357;DHT22;3211;53.452;-2.264;2023-04-03T16:11:34;26.00;99.90
6357;DHT22;3211;53.452;-2.264;2023-04-03T16:14:05;26.20;99.90
6357;DHT22;3211;53.452;-2.264;2023-04-03T16:16:33;26.90;99.90
6357;DHT22;3211;53.452;-2.264;2023-04-03T16:19:02;25.80;99.90
6357;DHT22;3211;53.452;-2.264;2023-04-03T16:21:29;24.80;99.90
6357;DHT22;3211;53.452;-2.264;2023-04-03T16:23:57;25.10;99.90
6357;DHT22;3211;53.452;-2.264;2023-04-03T16:26:24;25.20;99.90
6357;DHT22;3211;53.452;-2.264;2023-04-03T16:28:51;24.30;99.90
6357;DHT22;3211;53.452;-2.264;2023-04-03T16:31:18;23.30;99.90
6357;DHT22;3211;53.452;-2.264;2023-04-03T16:33:46;19.80;99.90
6357;DHT22;3211;53.452;-2.264;2023-04-03T16:36:13;18.70;99.90
6357;DHT22;3211;53.452;-2.264;2023-04-03T16:38:40;18.00;99.90
6357;DHT22;3211;53.452;-2.264;2023-04-03T16:41:07;17.90;99.90
6357;DHT22;3211;53.452;-2.264;2023-04-03T16:43:34;17.30;99.90
6357;DHT22;3211;53.452;-2.264;2023-04-03T16:46:02;16.80;99.90
6357;DHT22;3211;53.452;-2.264;2023-04-03T16:48:29;16.50;99.90
6357;DHT22;3211;53.452;-2.264;2023-04-03T16:50:59;16.90;99.90
6357;DHT22;3211;53.452;-2.264;2023-04-03T16:53:26;17.30;99.90
6357;DHT22;3211;53.452;-2.264;2023-04-03T16:55:54;17.00;99.90
6357;DHT22;3211;53.452;-2.264;2023-04-03T16:58:21;17.20;99.90
6357;DHT22;3211;53.452;-2.264;2023-04-03T17:00:48;16.30;99.90
6357;DHT22;3211;53.452;-2.264;2023-04-03T17:03:15;15.90;99.90
6357;DHT22;3211;53.452;-2.264;2023-04-03T17:05:42;15.70;99.90
6357;DHT22;3211;53.452;-2.264;2023-04-03T17:08:11;16.00;99.90
6357;DHT22;3211;53.452;-2.264;2023-04-03T17:10:39;15.90;99.90
6357;DHT22;3211;53.452;-2.264;2023-04-03T17:13:06;15.90;99.90
6357;DHT22;3211;53.452;-2.264;2023-04-03T17:15:33;15.90;99.90
6357;DHT22;3211;53.452;-2.264;2023-04-03T17:18:02;15.40;99.90
6357;DHT22;3211;53.452;-2.264;2023-04-03T17:20:29;15.40;99.90
6357;DHT22;3211;53.452;-2.264;2023-04-03T17:22:58;15.20;99.90
6357;DHT22;3211;53.452;-2.264;2023-04-03T17:25:26;15.30;99.90